createdAt,value
2018-06-03T00:04:20.888Z,20.10
2018-06-03T00:09:23.484Z,20.10
2018-06-03T00:14:26.148Z,20.00
2018-06-03T00:19:28.945Z,19.90
2018-06-03T00:24:31.557Z,19.90
2018-06-03T00:29:34.095Z,19.80
2018-06-03T00:34:36.695Z,19.70
2018-06-03T00:39:39.245Z,19.70
2018-06-03T00:44:41.846Z,19.60
2018-06-03T00:49:44.377Z,19.60
2018-06-03T00:54:46.950Z,19.50
2018-06-03T00:59:49.472Z,19.50
2018-06-03T01:04:52.035Z,19.40
2018-06-03T01:09:54.666Z,19.40
2018-06-03T01:14:57.223Z,19.30
2018-06-03T01:19:59.769Z,19.30
2018-06-03T01:25:02.337Z,19.20
2018-06-03T01:30:04.922Z,19.10
2018-06-03T01:35:07.478Z,19.10
2018-06-03T01:40:10.053Z,19.00
2018-06-03T01:45:12.612Z,19.00
2018-06-03T01:50:15.177Z,18.90
2018-06-03T01:55:17.752Z,18.80
2018-06-03T02:00:20.353Z,18.80
2018-06-03T02:05:22.894Z,18.80
2018-06-03T02:10:25.446Z,18.70
2018-06-03T02:15:28.189Z,18.60
2018-06-03T02:20:30.739Z,18.60
2018-06-03T02:25:33.325Z,18.60
2018-06-03T02:30:35.868Z,18.50
2018-06-03T02:35:38.433Z,18.50
2018-06-03T02:40:40.983Z,18.40
2018-06-03T02:45:43.643Z,18.40
2018-06-03T02:50:46.209Z,18.30
2018-06-03T02:55:49.531Z,18.20
2018-06-03T03:00:52.097Z,18.20
2018-06-03T03:05:54.628Z,18.20
2018-06-03T03:10:57.180Z,18.10
2018-06-03T03:15:59.770Z,18.10
2018-06-03T03:21:02.434Z,18.10
2018-06-03T03:26:05.012Z,18.00
2018-06-03T03:31:07.596Z,18.00
2018-06-03T03:36:10.134Z,17.90
2018-06-03T03:41:12.662Z,17.90
2018-06-03T03:46:15.381Z,17.80
2018-06-03T03:51:17.941Z,17.80
2018-06-03T03:56:20.468Z,17.80
2018-06-03T04:01:23.029Z,17.80
2018-06-03T04:06:25.574Z,17.70
2018-06-03T04:11:28.117Z,17.70
2018-06-03T04:16:30.686Z,17.70
2018-06-03T04:21:33.258Z,17.70
2018-06-03T04:26:35.808Z,17.70
2018-06-03T04:31:38.418Z,17.70
2018-06-03T04:36:40.975Z,17.70
2018-06-03T04:41:43.627Z,17.80
2018-06-03T04:46:46.179Z,17.80
2018-06-03T04:51:49.590Z,17.80
2018-06-03T04:56:52.151Z,17.90
2018-06-03T05:01:54.695Z,17.90
2018-06-03T05:06:57.258Z,18.00
2018-06-03T05:11:59.805Z,18.10
2018-06-03T05:17:02.392Z,18.20
2018-06-03T05:22:04.949Z,18.30
2018-06-03T05:27:07.533Z,18.40
2018-06-03T05:32:10.063Z,18.60
2018-06-03T05:37:12.644Z,18.80
2018-06-03T05:42:15.219Z,19.10
2018-06-03T05:47:17.877Z,19.40
2018-06-03T05:52:20.580Z,19.70
2018-06-03T05:57:23.929Z,20.40
2018-06-03T06:02:26.456Z,20.30
2018-06-03T06:07:29.054Z,20.60
2018-06-03T06:12:31.662Z,20.80
2018-06-03T06:17:35.382Z,21.50
2018-06-03T06:22:37.962Z,21.50
2018-06-03T06:27:40.509Z,21.70
2018-06-03T06:32:43.046Z,22.10
2018-06-03T06:37:45.587Z,22.40
2018-06-03T06:42:48.161Z,22.70
2018-06-03T06:47:50.745Z,23.00
2018-06-03T06:52:53.310Z,23.30
2018-06-03T06:57:55.915Z,23.70
2018-06-03T07:02:58.640Z,24.00
2018-06-03T07:08:01.238Z,24.30
2018-06-03T07:13:03.887Z,24.60
2018-06-03T07:18:06.437Z,24.80
2018-06-03T07:23:08.967Z,25.10
2018-06-03T07:28:11.523Z,25.40
2018-06-03T07:33:14.120Z,25.70
2018-06-03T07:38:16.769Z,26.00
2018-06-03T07:43:19.306Z,26.40
2018-06-03T07:48:21.861Z,26.60
2018-06-03T07:53:24.464Z,26.80
2018-06-03T07:58:27.029Z,27.10
2018-06-03T08:03:29.651Z,27.20
2018-06-03T08:08:32.248Z,27.50
2018-06-03T08:13:34.818Z,27.70
2018-06-03T08:18:37.377Z,27.90
2018-06-03T08:23:39.939Z,28.20
2018-06-03T08:28:42.499Z,28.30
2018-06-03T08:33:45.221Z,28.50
2018-06-03T08:38:47.770Z,28.80
2018-06-03T08:43:50.382Z,29.00
2018-06-03T08:48:52.961Z,29.10
2018-06-03T08:53:56.331Z,29.40
2018-06-03T08:58:58.945Z,29.40
2018-06-03T09:04:01.509Z,29.70
2018-06-03T09:09:04.133Z,29.80
2018-06-03T09:14:06.721Z,30.10
2018-06-03T09:19:09.381Z,30.20
2018-06-03T09:24:12.010Z,30.50
2018-06-03T09:29:14.594Z,30.60
2018-06-03T09:34:17.170Z,30.90
2018-06-03T09:39:20.516Z,30.90
2018-06-03T09:44:23.073Z,30.90
2018-06-03T09:49:25.624Z,30.90
2018-06-03T09:54:28.200Z,31.20
2018-06-03T09:59:30.771Z,31.20
2018-06-03T10:04:33.358Z,31.20
2018-06-03T10:09:35.938Z,31.10
2018-06-03T10:14:38.660Z,31.10
2018-06-03T10:19:41.285Z,30.90
2018-06-03T10:24:44.061Z,30.80
2018-06-03T10:29:46.633Z,30.70
2018-06-03T10:34:49.281Z,30.70
2018-06-03T10:39:51.833Z,30.60
2018-06-03T10:44:54.569Z,30.60
2018-06-03T10:49:57.123Z,30.70
2018-06-03T10:54:59.717Z,30.80
2018-06-03T11:00:02.302Z,30.60
2018-06-03T11:05:05.053Z,30.50
2018-06-03T11:10:07.658Z,30.70
2018-06-03T11:15:10.219Z,30.80
2018-06-03T11:20:12.791Z,31.00
2018-06-03T11:25:15.366Z,31.30
2018-06-03T11:30:17.923Z,31.50
2018-06-03T11:35:20.479Z,31.70
2018-06-03T11:40:23.017Z,31.80
2018-06-03T11:45:25.783Z,32.00
2018-06-03T11:50:28.449Z,32.10
2018-06-03T11:55:31.119Z,32.20
2018-06-03T12:00:33.755Z,32.50
2018-06-03T12:05:37.177Z,31.90
2018-06-03T12:10:39.791Z,31.90
2018-06-03T12:15:42.373Z,31.70
2018-06-03T12:20:45.004Z,31.70
2018-06-03T12:25:47.837Z,31.90
2018-06-03T12:30:50.774Z,32.30
2018-06-03T12:35:53.513Z,32.60
2018-06-03T12:40:56.439Z,32.80
2018-06-03T12:45:59.237Z,33.10
2018-06-03T12:51:02.801Z,32.70
2018-06-03T12:56:05.391Z,32.70
2018-06-03T13:01:08.299Z,32.90
2018-06-03T13:06:10.973Z,33.10
2018-06-03T13:11:13.528Z,33.20
2018-06-03T13:16:16.284Z,33.30
2018-06-03T13:21:18.997Z,33.30
2018-06-03T13:26:21.550Z,33.40
2018-06-03T13:31:24.143Z,33.40
2018-06-03T13:36:26.828Z,33.50
2018-06-03T13:41:29.404Z,33.40
2018-06-03T13:46:32.152Z,33.30
2018-06-03T13:51:34.710Z,33.30
2018-06-03T13:56:37.497Z,33.30
2018-06-03T14:01:42.749Z,33.30
2018-06-03T14:06:45.443Z,33.20
2018-06-03T14:11:48.810Z,33.20
2018-06-03T14:16:52.103Z,33.10
2018-06-03T14:21:54.657Z,33.10
2018-06-03T14:26:57.206Z,33.00
2018-06-03T14:32:00.210Z,33.00
2018-06-03T14:37:02.931Z,32.90
2018-06-03T14:42:05.779Z,32.90
2018-06-03T14:47:08.353Z,32.80
2018-06-03T14:52:11.012Z,32.70
2018-06-03T14:57:13.612Z,32.70
2018-06-03T15:02:16.121Z,32.60
2018-06-03T15:07:18.811Z,32.60
2018-06-03T15:12:22.330Z,32.50
2018-06-03T15:17:24.911Z,32.40
2018-06-03T15:22:27.552Z,32.40
2018-06-03T15:27:30.174Z,32.30
2018-06-03T15:32:32.967Z,32.20
2018-06-03T15:37:35.537Z,32.20
2018-06-03T15:42:38.409Z,32.10
2018-06-03T15:47:41.821Z,32.10
2018-06-03T15:52:44.396Z,32.00
2018-06-03T15:57:46.945Z,32.00
2018-06-03T16:02:49.570Z,32.00
2018-06-03T16:07:52.067Z,32.00
2018-06-03T16:12:54.605Z,31.90
2018-06-03T16:17:57.153Z,31.80
2018-06-03T16:22:59.690Z,31.70
2018-06-03T16:28:02.545Z,31.70
2018-06-03T16:33:05.093Z,31.50
2018-06-03T16:38:07.683Z,31.50
2018-06-03T16:43:10.376Z,31.40
2018-06-03T16:48:13.030Z,31.30
2018-06-03T16:53:15.558Z,31.20
2018-06-03T16:58:18.177Z,31.10
2018-06-03T17:03:20.801Z,31.00
2018-06-03T17:08:23.395Z,30.80
2018-06-03T17:13:25.922Z,30.70
2018-06-03T17:18:28.562Z,30.60
2018-06-03T17:23:31.093Z,30.40
2018-06-03T17:28:33.648Z,30.20
2018-06-03T17:33:36.200Z,30.00
2018-06-03T17:38:38.724Z,29.90
2018-06-03T17:43:41.504Z,29.80
2018-06-03T17:48:44.270Z,29.60
2018-06-03T17:53:48.051Z,29.40
2018-06-03T17:58:50.921Z,29.20
2018-06-03T18:03:53.557Z,29.10
2018-06-03T18:08:56.162Z,28.90
2018-06-03T18:13:58.817Z,28.80
2018-06-03T18:19:04.149Z,28.70
2018-06-03T18:24:07.024Z,28.50
2018-06-03T18:29:09.713Z,28.40
2018-06-03T18:34:19.656Z,28.20
2018-06-03T18:39:22.652Z,28.20
2018-06-03T18:44:27.529Z,28.10
2018-06-03T18:49:30.360Z,27.90
2018-06-03T18:54:33.230Z,27.80
2018-06-03T18:59:37.360Z,27.50
2018-06-03T19:04:40.148Z,27.50
2018-06-03T19:09:42.898Z,27.40
2018-06-03T19:14:45.548Z,27.30
2018-06-03T19:19:48.943Z,27.10
2018-06-03T19:24:52.695Z,26.90
2018-06-03T19:29:57.201Z,26.70
2018-06-03T19:34:59.933Z,26.70
2018-06-03T19:40:02.632Z,26.60
2018-06-03T19:45:06.207Z,26.30
2018-06-03T19:50:09.651Z,26.30
2018-06-03T19:55:12.291Z,26.20
2018-06-03T20:00:15.220Z,26.00
2018-06-03T20:05:18.247Z,25.90
2018-06-03T20:10:21.322Z,25.80
2018-06-03T20:15:24.011Z,25.60
2018-06-03T20:20:26.863Z,25.50
2018-06-03T20:25:29.615Z,25.40
2018-06-03T20:30:32.550Z,25.20
2018-06-03T20:35:35.305Z,25.10
2018-06-03T20:40:38.123Z,25.00
2018-06-03T20:45:41.112Z,24.90
2018-06-03T20:50:44.028Z,24.70
2018-06-03T20:55:46.953Z,24.60
2018-06-03T21:00:50.642Z,24.50
2018-06-03T21:05:53.673Z,24.30
2018-06-03T21:10:56.719Z,24.20
2018-06-03T21:15:59.953Z,24.10
2018-06-03T21:21:03.388Z,23.90
2018-06-03T21:26:07.334Z,23.80
2018-06-03T21:31:10.201Z,23.70
2018-06-03T21:36:13.273Z,23.60
2018-06-03T21:41:16.735Z,23.50
2018-06-03T21:46:19.791Z,23.30
2018-06-03T21:51:23.201Z,23.30
2018-06-03T21:56:26.554Z,23.20
2018-06-03T22:01:29.583Z,23.10
2018-06-03T22:06:32.319Z,23.00
2018-06-03T22:11:35.808Z,22.90
2018-06-03T22:16:40.076Z,22.80
2018-06-03T22:21:57.506Z,22.70
2018-06-03T22:27:00.424Z,22.60
2018-06-03T22:32:03.466Z,22.50
2018-06-03T22:37:06.741Z,22.40
2018-06-03T22:42:10.137Z,22.30
2018-06-03T22:47:13.023Z,22.20
2018-06-03T22:52:15.923Z,22.10
2018-06-03T22:57:18.833Z,22.00
2018-06-03T23:02:22.569Z,21.90
2018-06-03T23:07:25.112Z,21.90
2018-06-03T23:12:28.489Z,21.70
2018-06-03T23:17:31.972Z,21.70
2018-06-03T23:22:35.601Z,21.60
2018-06-03T23:27:38.634Z,21.50
2018-06-03T23:32:41.852Z,21.40
2018-06-03T23:37:44.990Z,21.30
2018-06-03T23:42:48.355Z,21.30
2018-06-03T23:47:51.662Z,21.20
2018-06-03T23:52:55.945Z,21.10
2018-06-03T23:57:59.013Z,21.00
